createdAt,value
2018-07-17T00:02:27.918Z,55.47
2018-07-17T00:08:33.576Z,56.94
2018-07-17T00:14:39.411Z,57.70
2018-07-17T00:20:45.455Z,57.50
2018-07-17T00:26:51.829Z,57.59
2018-07-17T00:32:57.642Z,58.03
2018-07-17T00:39:03.331Z,58.89
2018-07-17T00:45:09.016Z,59.47
2018-07-17T00:51:14.736Z,59.47
2018-07-17T00:57:20.616Z,59.99
2018-07-17T01:03:31.711Z,60.81
2018-07-17T01:09:42.467Z,60.60
2018-07-17T01:15:48.161Z,60.90
2018-07-17T01:21:54.381Z,61.85
2018-07-17T01:28:00.041Z,62.64
2018-07-17T01:34:05.715Z,62.45
2018-07-17T01:40:11.328Z,62.84
2018-07-17T01:46:17.044Z,64.14
2018-07-17T01:52:22.897Z,62.86
2018-07-17T01:58:28.571Z,64.12
2018-07-17T02:04:34.279Z,64.15
2018-07-17T02:10:39.984Z,64.81
2018-07-17T02:16:45.593Z,65.26
2018-07-17T02:22:51.231Z,65.69
2018-07-17T02:28:57.221Z,65.74
2018-07-17T02:35:02.970Z,65.67
2018-07-17T02:41:09.128Z,65.86
2018-07-17T02:47:14.941Z,66.08
2018-07-17T02:53:20.675Z,66.14
2018-07-17T02:59:26.453Z,66.31
2018-07-17T03:05:32.150Z,65.74
2018-07-17T03:11:37.908Z,66.77
2018-07-17T03:17:43.686Z,66.65
2018-07-17T03:23:49.390Z,66.92
2018-07-17T03:29:55.725Z,67.48
2018-07-17T03:36:01.598Z,68.58
2018-07-17T03:42:07.376Z,68.45
2018-07-17T03:48:13.207Z,68.32
2018-07-17T03:54:19.014Z,68.99
2018-07-17T04:00:24.745Z,68.61
2018-07-17T04:06:30.701Z,68.77
2018-07-17T04:12:36.374Z,69.37
2018-07-17T04:18:42.102Z,68.33
2018-07-17T04:24:47.841Z,68.59
2018-07-17T04:30:53.684Z,68.10
2018-07-17T04:36:59.416Z,68.38
2018-07-17T04:43:05.133Z,67.81
2018-07-17T04:49:10.844Z,67.35
2018-07-17T04:55:16.541Z,66.43
2018-07-17T05:01:22.767Z,65.88
2018-07-17T05:07:28.426Z,65.80
2018-07-17T05:13:34.009Z,67.05
2018-07-17T05:19:39.744Z,65.46
2018-07-17T05:25:45.418Z,64.34
2018-07-17T05:31:51.840Z,64.15
2018-07-17T05:37:57.291Z,62.90
2018-07-17T05:44:02.863Z,63.06
2018-07-17T05:50:09.410Z,62.00
2018-07-17T05:56:15.070Z,60.03
2018-07-17T06:02:21.051Z,58.47
2018-07-17T06:08:26.771Z,58.17
2018-07-17T06:14:32.542Z,58.96
2018-07-17T06:20:38.345Z,56.92
2018-07-17T06:26:44.050Z,56.44
2018-07-17T06:32:49.834Z,55.48
2018-07-17T06:38:55.584Z,56.04
2018-07-17T06:45:01.290Z,54.99
2018-07-17T06:51:07.125Z,54.87
2018-07-17T06:57:12.944Z,54.85
2018-07-17T07:03:18.816Z,53.21
2018-07-17T07:09:25.057Z,50.90
2018-07-17T07:15:30.838Z,49.89
2018-07-17T07:21:36.604Z,49.69
2018-07-17T07:27:42.392Z,49.26
2018-07-17T07:33:48.021Z,48.31
2018-07-17T07:39:53.822Z,46.37
2018-07-17T07:45:59.585Z,43.80
2018-07-17T07:52:05.262Z,43.96
2018-07-17T07:58:10.974Z,42.00
2018-07-17T08:04:16.756Z,41.10
2018-07-17T08:10:22.835Z,40.46
2018-07-17T08:16:28.541Z,40.45
2018-07-17T08:22:34.211Z,39.02
2018-07-17T08:28:39.865Z,37.94
2018-07-17T08:34:45.515Z,38.90
2018-07-17T08:40:51.990Z,36.42
2018-07-17T08:46:57.655Z,34.54
2018-07-17T08:53:03.378Z,34.79
2018-07-17T08:59:09.014Z,32.53
2018-07-17T09:05:14.687Z,31.89
2018-07-17T09:11:22.112Z,31.13
2018-07-17T09:17:27.924Z,31.03
2018-07-17T09:23:33.741Z,30.37
2018-07-17T09:29:39.469Z,30.14
2018-07-17T09:35:45.580Z,29.34
2018-07-17T09:41:52.204Z,29.14
2018-07-17T09:47:57.891Z,27.47
2018-07-17T09:54:03.632Z,27.10
2018-07-17T10:00:11.207Z,27.05
2018-07-17T10:06:17.291Z,28.69
2018-07-17T10:12:24.296Z,28.85
2018-07-17T10:18:30.307Z,28.40
2018-07-17T10:24:35.976Z,27.03
2018-07-17T10:30:41.824Z,26.76
2018-07-17T10:36:47.565Z,25.84
2018-07-17T10:42:53.894Z,27.75
2018-07-17T10:48:59.676Z,24.95
2018-07-17T10:55:05.684Z,26.10
2018-07-17T11:01:11.519Z,25.47
2018-07-17T11:07:17.193Z,23.22
2018-07-17T11:13:22.920Z,23.90
2018-07-17T11:19:28.618Z,22.02
2018-07-17T11:25:34.311Z,21.69
2018-07-17T11:31:40.036Z,22.26
2018-07-17T11:37:45.720Z,21.23
2018-07-17T11:43:51.857Z,21.92
2018-07-17T11:49:57.782Z,20.73
2018-07-17T11:56:03.447Z,19.40
2018-07-17T12:02:09.204Z,17.49
2018-07-17T12:08:15.129Z,17.53
2018-07-17T12:14:21.899Z,17.77
2018-07-17T12:20:27.704Z,17.99
2018-07-17T12:26:33.347Z,17.40
2018-07-17T12:32:39.449Z,18.51
2018-07-17T12:38:45.106Z,18.73
2018-07-17T12:44:51.201Z,18.14
2018-07-17T12:50:57.071Z,17.77
2018-07-17T12:57:02.733Z,17.83
2018-07-17T13:03:08.827Z,18.95
2018-07-17T13:09:14.529Z,17.14
2018-07-17T13:15:21.304Z,16.13
2018-07-17T13:21:27.478Z,17.33
2018-07-17T13:27:33.136Z,17.09
2018-07-17T13:33:38.844Z,18.89
2018-07-17T13:39:44.700Z,17.85
2018-07-17T13:45:51.370Z,18.12
2018-07-17T13:51:57.348Z,17.80
2018-07-17T13:58:03.162Z,19.79
2018-07-17T14:04:08.827Z,18.92
2018-07-17T14:10:14.549Z,19.05
2018-07-17T14:16:20.308Z,19.66
2018-07-17T14:22:27.092Z,18.65
2018-07-17T14:28:33.216Z,20.99
2018-07-17T14:34:39.066Z,20.40
2018-07-17T14:40:45.267Z,20.47
2018-07-17T14:46:51.264Z,20.59
2018-07-17T14:52:57.009Z,19.50
2018-07-17T14:59:02.670Z,18.95
2018-07-17T15:05:09.672Z,19.14
2018-07-17T15:11:15.367Z,18.64
2018-07-17T15:17:21.274Z,20.28
2018-07-17T15:23:27.110Z,20.32
2018-07-17T15:29:33.353Z,20.03
2018-07-17T15:35:39.068Z,18.85
2018-07-17T15:41:45.041Z,19.31
2018-07-17T15:47:50.953Z,18.86
2018-07-17T15:53:56.910Z,19.83
2018-07-17T16:00:02.900Z,21.54
2018-07-17T16:06:08.891Z,21.67
2018-07-17T16:12:14.787Z,22.40
2018-07-17T16:18:20.796Z,22.77
2018-07-17T16:24:26.810Z,24.01
2018-07-17T16:30:32.744Z,25.97
2018-07-17T16:36:38.751Z,26.67
2018-07-17T16:42:44.547Z,26.36
2018-07-17T16:48:50.139Z,27.68
2018-07-17T16:54:55.770Z,29.08
2018-07-17T17:01:02.212Z,28.98
2018-07-17T17:07:07.902Z,29.08
2018-07-17T17:13:13.902Z,28.39
2018-07-17T17:19:19.825Z,27.08
2018-07-17T17:25:25.776Z,27.01
2018-07-17T17:31:31.697Z,26.80
2018-07-17T17:37:37.610Z,26.41
2018-07-17T17:43:43.367Z,27.12
2018-07-17T17:49:49.341Z,25.68
2018-07-17T17:55:55.027Z,25.51
2018-07-17T18:02:00.913Z,26.18
2018-07-17T18:08:06.916Z,28.82
2018-07-17T18:14:12.900Z,28.58
2018-07-17T18:20:18.925Z,28.43
2018-07-17T18:26:24.926Z,28.07
2018-07-17T18:32:30.930Z,28.75
2018-07-17T18:38:36.867Z,29.74
2018-07-17T18:44:42.760Z,29.27
2018-07-17T18:50:48.743Z,31.46
2018-07-17T18:56:54.713Z,32.70
2018-07-17T19:03:00.635Z,34.37
2018-07-17T19:09:09.417Z,35.36
2018-07-17T19:15:14.997Z,36.11
2018-07-17T19:21:20.639Z,36.35
2018-07-17T19:27:26.194Z,37.02
2018-07-17T19:33:31.773Z,38.28
2018-07-17T19:39:37.353Z,38.95
2018-07-17T19:45:42.927Z,40.28
2018-07-17T19:51:48.545Z,41.26
2018-07-17T19:57:54.298Z,42.10
2018-07-17T20:03:59.961Z,42.67
2018-07-17T20:10:05.865Z,42.62
2018-07-17T20:16:11.807Z,42.72
2018-07-17T20:22:17.799Z,43.06
2018-07-17T20:28:23.695Z,43.75
2018-07-17T20:34:30.434Z,43.60
2018-07-17T20:40:36.346Z,44.51
2018-07-17T20:46:42.275Z,44.35
2018-07-17T20:52:48.215Z,44.64
2018-07-17T20:58:53.799Z,45.44
2018-07-17T21:04:59.448Z,45.08
2018-07-17T21:11:04.986Z,45.94
2018-07-17T21:17:10.555Z,47.00
2018-07-17T21:23:16.131Z,47.20
2018-07-17T21:29:21.852Z,48.46
2018-07-17T21:35:27.459Z,49.98
2018-07-17T21:41:33.012Z,49.57
2018-07-17T21:48:00.787Z,50.12
2018-07-17T21:54:06.590Z,50.06
2018-07-17T22:00:12.216Z,50.38
2018-07-17T22:06:17.849Z,50.74
2018-07-17T22:12:23.718Z,51.85
2018-07-17T22:18:29.314Z,52.29
2018-07-17T22:24:34.862Z,53.28
2018-07-17T22:30:40.467Z,53.48
2018-07-17T22:36:46.038Z,53.57
2018-07-17T22:42:51.616Z,54.71
2018-07-17T22:48:56.857Z,55.15
2018-07-17T22:55:02.286Z,55.59
2018-07-17T23:01:08.107Z,56.72
2018-07-17T23:07:13.653Z,57.22
2018-07-17T23:13:19.283Z,57.73
2018-07-17T23:19:24.809Z,58.36
2018-07-17T23:25:31.573Z,57.97
2018-07-17T23:31:37.139Z,58.98
2018-07-17T23:37:42.687Z,60.18
2018-07-17T23:43:48.291Z,60.48
2018-07-17T23:49:53.932Z,60.72
2018-07-17T23:55:59.857Z,61.23
